Time;durP1;ratioP1;P1;durP2;ratioP2;P2;SDS_P1;SDS_P2;PMS_P1;PMS_P2;Temp;Humidity;BMP_temperature;BMP_pressure;BME280_temperature;BME280_humidity;BME280_pressure;Samples;Min_cycle;Max_cycle;Signal;HPM_P1;HPM_P2
2022/06/14 00:01:29;;;;;;;7.23;4.30;;;;;;;14.28;nan;101831.53;5037249;28;20172;-73
2022/06/14 00:03:57;;;;;;;7.07;4.40;;;;;;;14.47;nan;101830.84;5038351;28;20182;-71
2022/06/14 00:06:25;;;;;;;5.60;3.77;;;;;;;14.43;nan;101830.81;5038243;28;20174;-71
2022/06/14 00:08:51;;;;;;;9.83;4.27;;;;;;;14.33;nan;101829.84;5036973;28;20635;-71
2022/06/14 00:11:22;;;;;;;9.30;4.40;;;;;;;14.36;nan;101824.63;5037548;28;20448;-70
2022/06/14 00:13:48;;;;;;;5.00;3.57;;;;;;;14.15;nan;101831.38;5037769;28;20399;-69
2022/06/14 00:16:14;;;;;;;7.10;4.03;;;;;;;14.27;nan;101828.00;5037515;28;20687;-70
2022/06/14 00:18:40;;;;;;;12.03;3.97;;;;;;;14.14;nan;101827.00;5037282;28;20477;-70
2022/06/14 00:21:05;;;;;;;5.53;3.90;;;;;;;14.34;nan;101828.94;5037969;28;20434;-69
2022/06/14 00:23:31;;;;;;;9.43;4.60;;;;;;;14.29;nan;101831.53;5037387;28;20257;-69
2022/06/14 00:25:58;;;;;;;7.83;4.33;;;;;;;14.31;nan;101828.94;5037568;28;20566;-70
2022/06/14 00:28:26;;;;;;;8.20;3.57;;;;;;;14.30;nan;101825.44;5037823;28;20170;-69
2022/06/14 00:30:55;;;;;;;5.40;4.30;;;;;;;14.49;nan;101833.50;5036768;28;20742;-70
2022/06/14 00:33:21;;;;;;;7.17;4.40;;;;;;;14.43;nan;101838.69;5037180;28;20758;-69
2022/06/14 00:35:47;;;;;;;13.40;4.37;;;;;;;14.31;nan;101839.41;5037907;28;20415;-69
2022/06/14 00:38:14;;;;;;;7.47;4.50;;;;;;;14.23;nan;101841.06;5039591;28;20528;-70
2022/06/14 00:40:41;;;;;;;7.73;4.23;;;;;;;14.22;nan;101832.34;5041011;28;20452;-69
2022/06/14 00:43:13;;;;;;;5.70;4.20;;;;;;;14.26;nan;101835.84;5041192;28;20453;-69
2022/06/14 00:45:39;;;;;;;11.43;4.43;;;;;;;14.13;nan;101833.09;5040966;28;20421;-70
2022/06/14 00:48:18;;;;;;;9.87;4.20;;;;;;;14.21;nan;101832.31;5040883;28;20678;-70
2022/06/14 00:51:13;;;;;;;14.80;5.50;;;;;;;14.38;nan;101832.50;5040102;28;20231;-72
2022/06/14 00:53:38;;;;;;;4.70;4.20;;;;;;;14.42;nan;101821.19;5040377;28;20409;-71
2022/06/14 00:56:18;;;;;;;9.87;4.20;;;;;;;14.19;nan;101828.78;5040883;28;20810;-70
2022/06/14 00:59:01;;;;;;;7.93;4.47;;;;;;;14.26;nan;101820.13;5040008;28;20280;-70
2022/06/14 01:01:30;;;;;;;7.23;4.20;;;;;;;14.18;nan;101816.53;5040654;28;20421;-69
2022/06/14 01:04:04;;;;;;;6.40;3.83;;;;;;;14.42;nan;101821.19;5039897;28;20527;-70
2022/06/14 01:06:43;;;;;;;6.50;3.87;;;;;;;14.30;nan;101832.41;5039839;28;20390;-70
2022/06/14 01:09:12;;;;;;;7.20;3.90;;;;;;;14.26;nan;101825.38;5040563;28;20396;-71
2022/06/14 01:11:44;;;;;;;6.60;4.53;;;;;;;14.31;nan;101835.06;5039792;28;20683;-70
2022/06/14 01:14:15;;;;;;;5.93;4.43;;;;;;;14.40;nan;101831.66;5039768;28;20471;-70
2022/06/14 01:16:40;;;;;;;9.43;4.00;;;;;;;14.46;nan;101828.22;5023045;28;20396;-70
2022/06/14 01:19:12;;;;;;;11.80;4.17;;;;;;;14.06;nan;101828.63;5040203;28;20874;-69
2022/06/14 01:21:37;;;;;;;8.50;4.77;;;;;;;14.35;nan;101819.38;5040189;28;20177;-70
2022/06/14 01:24:02;;;;;;;11.07;4.97;;;;;;;14.19;nan;101826.16;5040199;28;20416;-70
2022/06/14 01:26:29;;;;;;;11.33;4.23;;;;;;;14.20;nan;101822.69;5040493;28;20215;-71
2022/06/14 01:28:58;;;;;;;6.83;4.57;;;;;;;14.27;nan;101819.25;5040110;28;20535;-70
2022/06/14 01:31:23;;;;;;;7.13;4.23;;;;;;;14.29;nan;101823.66;5039351;28;20445;-70
2022/06/14 01:33:52;;;;;;;7.20;4.13;;;;;;;14.36;nan;101819.38;5039605;28;20413;-70
2022/06/14 01:36:26;;;;;;;5.60;4.07;;;;;;;14.27;nan;101807.00;5039315;28;20174;-70
2022/06/14 01:38:52;;;;;;;7.53;4.30;;;;;;;14.34;nan;101818.47;5039331;28;20452;-70
2022/06/14 01:41:42;;;;;;;6.60;3.90;;;;;;;14.28;nan;101816.66;5039895;28;20567;-69
2022/06/14 01:44:26;;;;;;;7.30;4.20;;;;;;;14.25;nan;101814.00;5039071;28;20404;-69
2022/06/14 01:47:28;;;;;;;9.40;4.10;;;;;;;14.27;nan;101807.00;5039818;28;20475;-70
2022/06/14 01:53:10;;;;;;;7.60;5.03;;;;;;;14.09;nan;101815.56;5039628;28;20419;-70
2022/06/14 01:55:49;;;;;;;8.03;4.03;;;;;;;14.32;nan;101817.56;5039147;28;20394;-70
2022/06/14 01:58:34;;;;;;;7.33;4.50;;;;;;;14.21;nan;101820.06;5038951;28;20413;-70
2022/06/14 02:01:10;;;;;;;9.00;5.07;;;;;;;14.19;nan;101824.41;5039015;28;20406;-69
2022/06/14 02:06:49;;;;;;;7.87;4.60;;;;;;;14.45;nan;101821.19;5039002;28;20471;-71
2022/06/14 02:09:31;;;;;;;4.40;3.97;;;;;;;14.38;nan;101817.63;5038609;28;20459;-69
2022/06/14 02:11:58;;;;;;;13.10;4.10;;;;;;;14.15;nan;101827.84;5038878;28;20413;-71
2022/06/14 02:14:48;;;;;;;9.00;4.73;;;;;;;14.18;nan;101825.28;5039215;28;20727;-71
2022/06/14 02:17:22;;;;;;;8.10;4.23;;;;;;;14.39;nan;101821.16;5038456;28;20555;-71
2022/06/14 02:19:59;;;;;;;6.80;4.30;;;;;;;14.35;nan;101827.22;5038378;28;20468;-70
2022/06/14 02:22:32;;;;;;;7.93;4.17;;;;;;;14.08;nan;101826.91;5039287;28;20804;-71
2022/06/14 02:25:08;;;;;;;10.50;5.90;;;;;;;14.10;nan;101821.69;5021917;28;20425;-70
2022/06/14 02:27:43;;;;;;;7.40;4.27;;;;;;;14.38;nan;101825.50;5039104;28;20386;-70
2022/06/14 02:30:14;;;;;;;9.00;4.13;;;;;;;14.07;nan;101825.16;5038292;28;20531;-70
2022/06/14 02:32:44;;;;;;;7.53;4.00;;;;;;;14.25;nan;101823.63;5038052;28;20395;-70
2022/06/14 02:35:13;;;;;;;12.63;4.53;;;;;;;14.26;nan;101826.25;5038797;28;20404;-70
2022/06/14 02:37:52;;;;;;;9.37;4.57;;;;;;;14.26;nan;101817.50;5038040;28;20453;-70
2022/06/14 02:40:22;;;;;;;7.00;4.20;;;;;;;14.48;nan;101814.25;5038007;28;20483;-70
2022/06/14 02:43:08;;;;;;;12.57;4.23;;;;;;;14.22;nan;101818.31;5037695;28;20695;-69
2022/06/14 02:45:39;;;;;;;10.20;4.53;;;;;;;14.34;nan;101821.09;5038013;28;20413;-69
2022/06/14 02:48:04;;;;;;;7.53;3.83;;;;;;;14.25;nan;101813.13;5038236;28;20849;-69
2022/06/14 02:50:46;;;;;;;8.50;4.20;;;;;;;14.33;nan;101819.34;5038592;28;20409;-69
2022/06/14 02:53:16;;;;;;;6.63;4.63;;;;;;;14.21;nan;101822.69;5037690;28;20170;-70
2022/06/14 02:55:48;;;;;;;8.10;4.60;;;;;;;13.98;nan;101825.03;5038654;28;20380;-69
2022/06/14 02:58:21;;;;;;;9.37;4.60;;;;;;;14.20;nan;101833.19;5037718;28;20683;-69
2022/06/14 03:00:51;;;;;;;7.30;4.20;;;;;;;13.92;nan;101845.91;5037391;28;20593;-69
2022/06/14 03:03:24;;;;;;;8.83;4.50;;;;;;;14.04;nan;101834.72;5037595;28;20395;-69
2022/06/14 03:05:55;;;;;;;9.30;4.57;;;;;;;14.35;nan;101840.34;5037613;28;20413;-69
2022/06/14 03:08:38;;;;;;;6.63;4.40;;;;;;;14.34;nan;101839.44;5038007;28;20449;-69
2022/06/14 03:11:40;;;;;;;11.10;4.90;;;;;;;14.07;nan;101846.13;5038460;28;20409;-69
2022/06/14 03:14:38;;;;;;;9.77;4.70;;;;;;;13.90;nan;101840.66;5037550;28;20771;-69
2022/06/14 03:17:25;;;;;;;7.47;5.07;;;;;;;13.96;nan;101832.88;5038107;28;20447;-69
2022/06/14 03:19:59;;;;;;;10.13;4.27;;;;;;;14.18;nan;101838.41;5037555;28;20551;-70
2022/06/14 03:22:54;;;;;;;7.83;4.73;;;;;;;14.27;nan;101829.75;5037990;28;20412;-70
2022/06/14 03:25:31;;;;;;;10.13;4.53;;;;;;;14.49;nan;101829.16;5037749;28;20417;-70
2022/06/14 03:28:25;;;;;;;6.67;4.67;;;;;;;14.21;nan;101829.69;5037402;28;20424;-69
2022/06/14 03:31:03;;;;;;;10.20;4.33;;;;;;;14.20;nan;101820.94;5037352;28;20428;-69
2022/06/14 03:33:35;;;;;;;10.63;4.57;;;;;;;14.51;nan;101828.28;5037251;28;20706;-70
2022/06/14 03:36:00;;;;;;;8.83;4.67;;;;;;;14.28;nan;101829.75;5038116;28;20769;-70
2022/06/14 03:38:38;;;;;;;9.10;4.30;;;;;;;14.41;nan;101830.81;5037485;28;20413;-70
2022/06/14 03:41:05;;;;;;;8.37;4.63;;;;;;;14.49;nan;101826.53;5037964;28;20182;-70
2022/06/14 03:43:32;;;;;;;10.57;4.77;;;;;;;14.58;nan;101823.09;5037240;28;20395;-70
2022/06/14 03:46:11;;;;;;;6.30;4.60;;;;;;;14.63;nan;101820.56;5037838;28;20415;-70
2022/06/14 03:48:40;;;;;;;12.20;5.37;;;;;;;14.80;nan;101826.88;5037027;28;20395;-70
2022/06/14 03:51:42;;;;;;;12.90;5.20;;;;;;;14.60;nan;101826.63;5037704;28;20417;-70
2022/06/14 03:54:34;;;;;;;9.53;5.00;;;;;;;14.77;nan;101818.06;5037609;28;20409;-70
2022/06/14 03:57:11;;;;;;;7.03;5.00;;;;;;;14.99;nan;101827.00;5037090;28;20428;-70
2022/06/14 04:00:04;;;;;;;10.10;5.47;;;;;;;14.92;nan;101819.97;5037664;28;20841;-70
2022/06/14 04:02:54;;;;;;;8.97;5.33;;;;;;;14.75;nan;101823.31;5037623;28;20412;-69
2022/06/14 04:05:43;;;;;;;14.97;5.20;;;;;;;15.21;nan;101828.09;5037764;28;20826;-69
2022/06/14 04:08:18;;;;;;;9.13;5.67;;;;;;;15.58;nan;101822.22;5037741;28;20703;-70
2022/06/14 04:10:52;;;;;;;10.70;5.37;;;;;;;16.08;nan;101821.63;5037737;28;20745;-69
2022/06/14 04:13:53;;;;;;;8.20;4.43;;;;;;;15.93;nan;101819.81;5039408;28;20427;-69
2022/06/14 04:16:30;;;;;;;7.57;4.80;;;;;;;15.69;nan;101827.53;5041198;28;20747;-69
2022/06/14 04:19:04;;;;;;;8.17;5.00;;;;;;;15.92;nan;101809.28;5041400;28;20492;-70
2022/06/14 04:21:56;;;;;;;15.03;5.50;;;;;;;16.58;nan;101811.25;5040868;28;20391;-69
2022/06/14 04:24:54;;;;;;;7.13;4.50;;;;;;;16.31;nan;101818.22;5040798;28;20395;-69
2022/06/14 04:27:27;;;;;;;5.37;4.20;;;;;;;16.46;nan;101812.09;5040594;28;20392;-70
2022/06/14 04:30:17;;;;;;;8.23;4.30;;;;;;;16.22;nan;101808.50;5040496;28;20452;-70
2022/06/14 04:33:11;;;;;;;10.30;4.70;;;;;;;17.31;nan;101812.19;5041111;28;20417;-69
2022/06/14 04:35:49;;;;;;;5.70;4.30;;;;;;;17.67;nan;101810.34;5041277;28;20395;-69
2022/06/14 04:38:56;;;;;;;8.53;4.07;;;;;;;18.78;nan;101809.84;5040424;28;20399;-70
2022/06/14 04:41:26;;;;;;;5.90;4.50;;;;;;;19.65;nan;101799.38;5040901;28;20432;-69
2022/06/14 04:44:28;;;;;;;8.87;4.40;;;;;;;20.44;nan;101795.72;5040140;28;20429;-69
2022/06/14 04:46:59;;;;;;;7.33;3.93;;;;;;;21.23;nan;101793.59;5039369;28;20398;-69
2022/06/14 04:49:46;;;;;;;6.60;3.90;;;;;;;20.78;nan;101797.91;5040832;28;20417;-69
2022/06/14 04:52:39;;;;;;;7.80;3.70;;;;;;;21.60;nan;101796.47;5040195;28;20417;-70
2022/06/14 04:55:08;;;;;;;5.10;3.70;;;;;;;21.50;nan;101798.41;5039118;28;20867;-70
2022/06/14 04:57:44;;;;;;;6.67;3.67;;;;;;;19.81;nan;101807.19;5040056;28;20413;-70
2022/06/14 05:00:16;;;;;;;6.40;3.70;;;;;;;19.99;nan;101811.38;5039773;28;20471;-69
2022/06/14 05:02:50;;;;;;;6.47;3.60;;;;;;;18.56;nan;101821.44;5038969;28;20464;-70
2022/06/14 05:05:25;;;;;;;6.40;3.50;;;;;;;18.00;nan;101821.72;5040376;28;20515;-70
2022/06/14 05:08:11;;;;;;;8.20;3.90;;;;;;;17.53;nan;101820.94;5040464;28;20805;-69
2022/06/14 05:10:39;;;;;;;9.03;4.47;;;;;;;17.65;nan;101833.22;5040084;28;20441;-69
2022/06/14 05:13:20;;;;;;;9.10;5.33;;;;;;;17.28;nan;101826.25;5039765;28;20616;-70
2022/06/14 05:15:57;;;;;;;10.27;4.73;;;;;;;16.84;nan;101830.63;5038912;28;20425;-69
2022/06/14 05:18:30;;;;;;;9.93;4.67;;;;;;;16.57;nan;101831.44;5039320;28;20890;-69
2022/06/14 05:21:08;;;;;;;6.50;4.33;;;;;;;16.58;nan;101834.97;5039494;28;20475;-70
2022/06/14 05:23:41;;;;;;;8.80;4.20;;;;;;;16.46;nan;101834.03;5038094;28;20853;-70
2022/06/14 05:26:31;;;;;;;8.40;4.00;;;;;;;16.15;nan;101839.19;5040068;28;20440;-70
2022/06/14 05:29:15;;;;;;;9.87;4.73;;;;;;;16.31;nan;101837.50;5051129;28;20806;-69
2022/06/14 05:31:47;;;;;;;9.10;4.37;;;;;;;16.11;nan;101847.94;5033054;28;20428;-70
2022/06/14 05:34:51;;;;;;;7.27;4.30;;;;;;;16.35;nan;101843.66;5055246;28;20418;-70
2022/06/14 05:37:27;;;;;;;6.70;4.60;;;;;;;16.14;nan;101844.44;5049918;28;20405;-69
2022/06/14 05:40:14;;;;;;;5.60;4.43;;;;;;;16.38;nan;101848.94;5043903;28;20472;-69
2022/06/14 05:42:44;;;;;;;10.13;4.93;;;;;;;15.99;nan;101858.41;5035680;28;20420;-69
2022/06/14 05:45:11;;;;;;;7.80;4.40;;;;;;;16.09;nan;101849.69;5048867;28;20430;-69
2022/06/14 05:47:41;;;;;;;6.87;4.40;;;;;;;15.76;nan;101855.63;5039460;28;20411;-69
2022/06/14 05:50:12;;;;;;;9.60;4.87;;;;;;;15.86;nan;101859.19;5045215;28;20407;-68
2022/06/14 05:53:15;;;;;;;11.83;5.00;;;;;;;16.04;nan;101861.94;5053360;28;20415;-69
2022/06/14 05:55:45;;;;;;;6.63;4.20;;;;;;;16.18;nan;101859.38;5047903;28;20394;-69
2022/06/14 05:58:19;;;;;;;7.63;3.83;;;;;;;15.76;nan;101867.03;5041854;28;20802;-69
2022/06/14 06:00:55;;;;;;;8.90;4.13;;;;;;;15.96;nan;101866.28;5041425;28;20453;-69
2022/06/14 06:03:30;;;;;;;13.27;4.70;;;;;;;16.02;nan;101870.69;5030572;28;20439;-69
2022/06/14 06:06:00;;;;;;;8.00;4.40;;;;;;;15.90;nan;101874.13;5045148;28;20442;-70
2022/06/14 06:08:33;;;;;;;10.70;4.53;;;;;;;16.27;nan;101859.41;5049745;28;20486;-68
2022/06/14 06:11:05;;;;;;;5.20;3.97;;;;;;;16.42;nan;101858.59;5049651;28;20428;-69
2022/06/14 06:13:37;;;;;;;5.50;4.07;;;;;;;16.22;nan;101871.66;5045287;28;20407;-69
2022/06/14 06:16:14;;;;;;;11.63;5.23;;;;;;;16.53;nan;101863.88;5054812;28;20679;-68
2022/06/14 06:18:54;;;;;;;9.23;4.47;;;;;;;16.56;nan;101863.91;5043124;28;20441;-69
2022/06/14 06:21:32;;;;;;;14.13;4.30;;;;;;;16.69;nan;101867.44;5050307;28;20470;-69
2022/06/14 06:24:09;;;;;;;5.53;3.87;;;;;;;16.83;nan;101857.81;5039491;28;20436;-69
2022/06/14 06:26:36;;;;;;;11.73;4.57;;;;;;;17.24;nan;101866.66;5058345;28;20398;-69
2022/06/14 06:29:19;;;;;;;8.73;4.37;;;;;;;17.39;nan;101860.50;5050192;28;20468;-69
2022/06/14 06:31:46;;;;;;;8.20;4.07;;;;;;;17.68;nan;101867.50;5047356;28;20425;-70
2022/06/14 06:34:13;;;;;;;6.80;3.70;;;;;;;17.56;nan;101868.38;5054141;28;20735;-70
2022/06/14 06:36:38;;;;;;;8.13;4.03;;;;;;;17.60;nan;101867.53;5038694;28;20440;-70
2022/06/14 06:39:25;;;;;;;7.20;3.60;;;;;;;17.38;nan;101871.94;5041026;28;20452;-69
2022/06/14 06:41:56;;;;;;;7.00;4.40;;;;;;;17.77;nan;101877.16;5037600;28;20185;-70
2022/06/14 06:44:47;;;;;;;7.30;4.10;;;;;;;18.40;nan;101878.72;5033342;28;20433;-70
2022/06/14 06:47:22;;;;;;;9.30;4.03;;;;;;;18.15;nan;101879.72;5036605;28;20483;-70
2022/06/14 06:49:54;;;;;;;9.90;4.03;;;;;;;18.52;nan;101879.56;5020148;28;20887;-71
2022/06/14 06:52:25;;;;;;;9.90;3.60;;;;;;;18.24;nan;101883.19;5020151;28;20803;-69
2022/06/14 06:54:56;;;;;;;6.07;3.80;;;;;;;19.25;nan;101880.88;5016639;28;20421;-70
2022/06/14 06:57:24;;;;;;;6.60;3.60;;;;;;;21.42;nan;101864.00;5033836;28;20428;-70
2022/06/14 06:59:51;;;;;;;6.70;4.07;;;;;;;21.59;nan;101873.47;5038465;28;20471;-71
2022/06/14 07:02:22;;;;;;;6.33;3.60;;;;;;;22.47;nan;101864.63;5037757;28;20424;-69
2022/06/14 07:05:06;;;;;;;7.50;3.47;;;;;;;22.69;nan;101857.06;5037704;28;20432;-70
2022/06/14 07:07:37;;;;;;;7.03;3.77;;;;;;;23.08;nan;101864.09;5038094;28;20413;-70
2022/06/14 07:10:19;;;;;;;9.20;3.57;;;;;;;23.91;nan;101861.09;5037860;28;20436;-70
2022/06/14 07:12:58;;;;;;;4.93;3.50;;;;;;;23.16;nan;101867.47;5036582;28;20425;-70
2022/06/14 07:15:30;;;;;;;7.53;4.07;;;;;;;24.25;nan;101869.88;5036992;28;20440;-70
2022/06/14 07:18:18;;;;;;;5.77;3.73;;;;;;;23.11;nan;101872.00;5047466;28;20471;-71
2022/06/14 07:20:48;;;;;;;5.90;3.67;;;;;;;25.34;nan;101850.44;5040138;28;20889;-70
2022/06/14 07:23:16;;;;;;;8.00;3.70;;;;;;;24.14;nan;101860.44;5052736;28;20417;-70
2022/06/14 07:26:11;;;;;;;11.27;4.00;;;;;;;22.58;nan;101864.38;5036934;28;20431;-71
2022/06/14 07:28:45;;;;;;;6.50;4.37;;;;;;;21.01;nan;101866.47;5040648;28;20512;-70
2022/06/14 07:31:20;;;;;;;7.33;3.30;;;;;;;21.15;nan;101868.03;5040000;28;20521;-70
2022/06/14 07:33:46;;;;;;;7.40;4.03;;;;;;;20.75;nan;101873.94;5047575;28;20825;-70
2022/06/14 07:36:18;;;;;;;5.70;3.67;;;;;;;21.86;nan;101866.75;5040863;28;20702;-69
2022/06/14 07:38:46;;;;;;;7.67;3.90;;;;;;;21.44;nan;101862.19;5056543;28;20205;-71
2022/06/14 07:41:20;;;;;;;8.13;4.33;;;;;;;21.93;nan;101872.81;5038923;28;20455;-72
2022/06/14 07:44:21;;;;;;;9.10;3.60;;;;;;;22.65;nan;101870.44;5037988;28;20439;-71
2022/06/14 07:47:11;;;;;;;6.80;3.90;;;;;;;22.09;nan;101876.06;5015494;28;20432;-71
2022/06/14 07:49:53;;;;;;;7.47;3.60;;;;;;;20.74;nan;101886.28;5061290;28;20426;-69
2022/06/14 07:52:36;;;;;;;7.70;4.00;;;;;;;20.78;nan;101881.81;5044915;28;20432;-70
2022/06/14 07:55:24;;;;;;;11.00;3.70;;;;;;;21.03;nan;101877.91;5059779;28;20420;-70
2022/06/14 07:57:59;;;;;;;5.77;3.07;;;;;;;20.48;nan;101876.91;5047020;28;20554;-73
2022/06/14 08:03:19;;;;;;;6.87;3.20;;;;;;;20.50;nan;101893.66;5044207;28;20434;-71
2022/06/14 08:05:46;;;;;;;11.50;4.57;;;;;;;20.84;nan;101885.25;5046145;28;20452;-71
2022/06/14 08:08:15;;;;;;;7.83;3.77;;;;;;;21.69;nan;101872.41;5046915;28;20846;-71
2022/06/14 08:10:47;;;;;;;6.33;3.20;;;;;;;23.43;nan;101869.47;5043868;28;20807;-71
2022/06/14 08:13:15;;;;;;;9.30;4.00;;;;;;;23.79;nan;101872.06;5043026;28;20417;-72
2022/06/14 08:15:47;;;;;;;8.33;3.23;;;;;;;23.01;nan;101873.13;5051056;28;20527;-70
2022/06/14 08:18:24;;;;;;;6.80;3.40;;;;;;;20.75;nan;101887.19;5042607;28;20556;-71
2022/06/14 08:20:56;;;;;;;6.23;3.30;;;;;;;21.23;nan;101878.47;5028434;28;20960;-70
2022/06/14 08:23:28;;;;;;;7.43;3.47;;;;;;;22.78;nan;101871.91;5043150;28;20448;-74
2022/06/14 08:26:03;;;;;;;4.63;2.73;;;;;;;23.68;nan;101873.22;5044491;28;20397;-74
2022/06/14 08:28:42;;;;;;;5.50;2.90;;;;;;;25.07;nan;101870.03;5043417;28;20798;-73
2022/06/14 08:31:26;;;;;;;5.17;3.43;;;;;;;25.55;nan;101866.63;5041074;28;20452;-73
2022/06/14 08:34:00;;;;;;;5.43;3.50;;;;;;;25.38;nan;101867.22;5043098;28;20466;-73
2022/06/14 08:36:34;;;;;;;5.57;3.60;;;;;;;23.54;nan;101870.94;5043123;28;20856;-74
2022/06/14 08:39:04;;;;;;;5.50;3.10;;;;;;;22.56;nan;101874.19;5039935;28;20427;-74
2022/06/14 08:41:39;;;;;;;6.03;3.83;;;;;;;21.53;nan;101883.28;5043343;28;20481;-74
2022/06/14 08:44:12;;;;;;;5.90;3.63;;;;;;;21.43;nan;101876.34;5059638;28;20837;-74
2022/06/14 08:46:56;;;;;;;8.23;3.77;;;;;;;21.07;nan;101881.38;5043066;28;20431;-73
2022/06/14 08:50:07;;;;;;;6.93;3.77;;;;;;;20.61;nan;101890.00;5043321;28;20719;-74
2022/06/14 08:53:10;;;;;;;8.60;3.47;;;;;;;20.44;nan;101877.84;5027384;28;20482;-72
2022/06/14 08:56:02;;;;;;;4.97;3.40;;;;;;;20.61;nan;101876.75;5022084;28;20729;-72
2022/06/14 08:58:42;;;;;;;7.93;3.80;;;;;;;21.34;nan;101876.53;5005261;28;20697;-71
2022/06/14 09:01:33;;;;;;;6.70;3.50;;;;;;;22.40;nan;101865.69;5034721;28;20465;-72
2022/06/14 09:04:36;;;;;;;4.47;3.40;;;;;;;22.76;nan;101871.06;5039919;28;20796;-72
2022/06/14 09:07:36;;;;;;;10.90;4.43;;;;;;;22.21;nan;101868.69;5040472;28;20446;-72
2022/06/14 09:10:29;;;;;;;7.30;3.50;;;;;;;24.16;nan;101863.03;5045439;28;20759;-72
2022/06/14 09:13:05;;;;;;;7.87;3.57;;;;;;;25.29;nan;101849.69;5040230;28;20408;-69
2022/06/14 09:15:51;;;;;;;6.40;3.40;;;;;;;26.13;nan;101849.41;5040325;28;20451;-68
2022/06/14 09:18:37;;;;;;;4.77;3.47;;;;;;;26.75;nan;101847.91;5040005;28;20766;-69
2022/06/14 09:21:05;;;;;;;5.60;3.33;;;;;;;23.86;nan;101863.84;5039214;28;20453;-69
2022/06/14 09:23:48;;;;;;;7.57;3.70;;;;;;;25.52;nan;101846.25;5039039;28;20408;-70
2022/06/14 09:26:26;;;;;;;6.77;3.60;;;;;;;25.04;nan;101854.97;5037948;28;20524;-70
2022/06/14 09:29:30;;;;;;;6.97;3.17;;;;;;;25.73;nan;101851.72;5020305;28;20436;-71
2022/06/14 09:32:07;;;;;;;5.67;3.00;;;;;;;25.83;nan;101854.94;5034605;28;20489;-71
2022/06/14 09:34:47;;;;;;;3.50;2.80;;;;;;;24.25;nan;101860.09;5039742;28;20431;-75
2022/06/14 09:37:37;;;;;;;4.83;3.03;;;;;;;23.20;nan;101866.50;5039273;28;20420;-74
2022/06/14 09:40:21;;;;;;;4.10;3.00;;;;;;;22.08;nan;101867.19;5039751;28;20471;-72
2022/06/14 09:43:20;;;;;;;6.47;3.30;;;;;;;21.38;nan;101883.53;5039769;28;20417;-71
2022/06/14 09:45:57;;;;;;;6.50;3.77;;;;;;;21.19;nan;101882.97;5020579;28;20410;-72
2022/06/14 09:48:58;;;;;;;5.20;3.27;;;;;;;21.53;nan;101877.13;5039651;28;20424;-71
2022/06/14 09:51:26;;;;;;;9.57;3.43;;;;;;;21.02;nan;101880.59;5038057;28;20441;-73
2022/06/14 09:54:10;;;;;;;4.40;3.10;;;;;;;20.85;nan;101878.19;5039280;28;20435;-70
2022/06/14 09:57:16;;;;;;;5.00;2.80;;;;;;;21.23;nan;101881.13;5039452;28;20424;-69
2022/06/14 09:59:54;;;;;;;5.00;3.27;;;;;;;21.73;nan;101879.41;5039132;28;20460;-70
2022/06/14 10:02:46;;;;;;;7.43;3.40;;;;;;;21.82;nan;101873.91;5038474;28;20424;-70
2022/06/14 10:05:24;;;;;;;7.67;3.20;;;;;;;22.33;nan;101866.69;5038785;28;20424;-70
2022/06/14 10:08:11;;;;;;;6.93;3.50;;;;;;;21.96;nan;101872.75;5038703;28;20416;-70
2022/06/14 10:10:46;;;;;;;6.30;3.10;;;;;;;21.50;nan;101869.16;5039073;28;20717;-70
2022/06/14 10:13:56;;;;;;;4.70;3.07;;;;;;;20.86;nan;101885.25;5039523;28;20868;-70
2022/06/14 10:16:28;;;;;;;5.50;3.63;;;;;;;21.35;nan;101880.91;5055128;28;20419;-70
2022/06/14 10:19:12;;;;;;;6.87;3.40;;;;;;;20.52;nan;101885.69;5038288;28;20474;-72
2022/06/14 10:22:03;;;;;;;5.80;3.50;;;;;;;20.67;nan;101889.91;5039382;28;20409;-70
2022/06/14 10:24:39;;;;;;;7.33;3.53;;;;;;;21.21;nan;101881.16;5037833;28;20522;-70
2022/06/14 10:30:29;;;;;;;6.17;3.10;;;;;;;21.37;nan;101882.63;5039040;28;20825;-71
2022/06/14 10:33:15;;;;;;;8.57;3.33;;;;;;;21.62;nan;101884.03;5028216;28;20722;-70
2022/06/14 10:35:41;;;;;;;5.30;2.97;;;;;;;21.03;nan;101888.50;5038670;28;20479;-72
2022/06/14 10:38:09;;;;;;;6.13;4.30;;;;;;;21.15;nan;101886.56;5038157;28;20429;-71
2022/06/14 10:41:00;;;;;;;5.00;3.50;;;;;;;21.32;nan;101891.59;5038696;28;20216;-70
2022/06/14 10:43:54;;;;;;;5.03;3.40;;;;;;;21.35;nan;101891.53;5038607;28;20417;-70
2022/06/14 10:46:43;;;;;;;7.97;3.60;;;;;;;21.75;nan;101887.34;5038695;28;20424;-70
2022/06/14 10:49:21;;;;;;;6.10;2.93;;;;;;;21.08;nan;101883.16;5038666;28;20413;-70
2022/06/14 10:52:05;;;;;;;7.10;3.50;;;;;;;21.11;nan;101877.78;5038455;28;20437;-70
2022/06/14 10:54:48;;;;;;;6.10;3.40;;;;;;;21.57;nan;101878.81;5038458;28;20806;-71
2022/06/14 10:57:37;;;;;;;7.37;3.87;;;;;;;21.61;nan;101884.91;5038634;28;20448;-71
2022/06/14 11:00:48;;;;;;;6.27;3.47;;;;;;;21.56;nan;101882.34;5037892;28;20689;-70
2022/06/14 11:03:32;;;;;;;6.73;3.30;;;;;;;21.86;nan;101882.69;5025807;28;20491;-70
2022/06/14 11:06:18;;;;;;;6.43;3.30;;;;;;;21.60;nan;101878.75;5036113;28;20428;-70
2022/06/14 11:08:56;;;;;;;4.97;3.27;;;;;;;21.46;nan;101880.72;5037752;28;20409;-70
2022/06/14 11:11:40;;;;;;;7.23;3.33;;;;;;;21.67;nan;101880.38;5037817;28;20427;-71
2022/06/14 11:14:13;;;;;;;4.60;3.27;;;;;;;21.66;nan;101883.06;5037013;28;20690;-72
2022/06/14 11:17:12;;;;;;;5.03;3.33;;;;;;;22.88;nan;101876.09;5037045;28;20704;-71
2022/06/14 11:19:42;;;;;;;4.83;2.77;;;;;;;22.35;nan;101868.44;5037900;28;20538;-71
2022/06/14 11:22:36;;;;;;;6.03;3.43;;;;;;;22.75;nan;101866.66;5037143;28;20463;-70
2022/06/14 11:25:20;;;;;;;4.40;2.77;;;;;;;22.41;nan;101870.09;5036728;28;20425;-70
2022/06/14 11:28:07;;;;;;;7.20;3.40;;;;;;;22.01;nan;101863.81;5036527;28;20668;-73
2022/06/14 11:30:54;;;;;;;9.47;3.63;;;;;;;22.04;nan;101869.06;5037790;28;20791;-75
2022/06/14 11:34:13;;;;;;;6.17;3.43;;;;;;;22.17;nan;101867.00;5037242;28;20420;-74
2022/06/14 11:36:46;;;;;;;3.73;2.83;;;;;;;21.27;nan;101874.88;4997053;28;20407;-71
2022/06/14 11:39:17;;;;;;;6.63;4.73;;;;;;;21.69;nan;101872.41;4997068;28;20778;-73
2022/06/14 11:41:48;;;;;;;4.30;3.10;;;;;;;21.76;nan;101866.06;5023382;28;20421;-73
2022/06/14 11:44:32;;;;;;;6.97;3.20;;;;;;;21.97;nan;101869.19;5037635;28;20424;-75
2022/06/14 11:47:06;;;;;;;5.47;2.77;;;;;;;21.51;nan;101869.16;5037284;28;20664;-70
2022/06/14 11:49:37;;;;;;;7.87;2.93;;;;;;;21.80;nan;101870.41;5037763;28;20404;-74
2022/06/14 11:52:19;;;;;;;4.37;2.80;;;;;;;21.91;nan;101878.16;5036983;28;20504;-74
2022/06/14 11:55:11;;;;;;;4.70;2.97;;;;;;;21.80;nan;101878.38;5037612;28;20672;-75
2022/06/14 11:58:03;;;;;;;4.40;2.67;;;;;;;21.67;nan;101869.75;5037741;28;20419;-74
2022/06/14 12:00:55;;;;;;;4.70;3.10;;;;;;;22.01;nan;101869.13;5037476;28;20516;-74
2022/06/14 12:03:38;;;;;;;3.20;2.90;;;;;;;21.85;nan;101867.66;5018178;28;20930;-74
2022/06/14 12:06:15;;;;;;;3.60;3.03;;;;;;;22.67;nan;101863.31;5036511;28;20706;-73
2022/06/14 12:09:33;;;;;;;5.70;3.90;;;;;;;22.30;nan;101872.06;5034848;28;20432;-72
2022/06/14 12:12:18;;;;;;;4.63;3.20;;;;;;;21.29;nan;101873.09;5000178;28;20704;-73
2022/06/14 12:15:31;;;;;;;2.93;2.50;;;;;;;21.39;nan;101869.34;5002295;28;20441;-72
2022/06/14 12:18:01;;;;;;;3.50;3.20;;;;;;;21.66;nan;101862.72;4980622;28;20478;-73
2022/06/14 12:20:26;;;;;;;3.90;3.10;;;;;;;21.34;nan;101863.28;5025313;28;20472;-72
2022/06/14 12:23:01;;;;;;;3.00;2.70;;;;;;;21.97;nan;101862.09;5037074;28;20431;-70
2022/06/14 12:28:28;;;;;;;3.70;2.50;;;;;;;21.69;nan;101856.47;5032142;28;20447;-72
2022/06/14 12:31:03;;;;;;;4.50;2.77;;;;;;;21.73;nan;101860.81;5036168;28;20845;-71
2022/06/14 12:33:40;;;;;;;4.97;3.30;;;;;;;21.80;nan;101859.78;5036900;28;20898;-71
2022/06/14 12:36:23;;;;;;;3.73;3.00;;;;;;;22.40;nan;101852.38;5051224;28;20717;-72
2022/06/14 12:38:53;;;;;;;4.23;2.40;;;;;;;22.59;nan;101852.00;5040786;28;20425;-73
2022/06/14 12:41:54;;;;;;;3.50;2.83;;;;;;;22.96;nan;101853.75;5039966;28;21577;-72
2022/06/14 12:44:31;;;;;;;4.50;3.00;;;;;;;22.37;nan;101856.00;5019429;28;20417;-70
2022/06/14 12:47:00;;;;;;;4.50;2.90;;;;;;;22.23;nan;101860.72;5037525;28;20579;-72
2022/06/14 12:49:30;;;;;;;5.00;2.97;;;;;;;22.42;nan;101853.25;5055788;28;20454;-71
2022/06/14 12:52:08;;;;;;;6.60;2.93;;;;;;;22.10;nan;101861.88;5054264;28;20539;-72